createdAt,value
2019-05-30T00:00:17.070Z,11.10
2019-05-30T00:02:40.505Z,11.10
2019-05-30T00:05:09.977Z,11.10
2019-05-30T00:07:39.105Z,11.10
2019-05-30T00:10:08.217Z,11.00
2019-05-30T00:12:37.300Z,11.10
2019-05-30T00:15:09.681Z,11.10
2019-05-30T00:17:38.896Z,11.10
2019-05-30T00:20:08.818Z,10.90
2019-05-30T00:22:37.980Z,10.90
2019-05-30T00:25:08.175Z,10.80
2019-05-30T00:27:37.301Z,10.80
2019-05-30T00:30:23.366Z,10.80
2019-05-30T00:32:37.739Z,10.80
2019-05-30T00:35:08.468Z,10.80
2019-05-30T00:37:37.817Z,10.90
2019-05-30T00:42:36.876Z,10.80
2019-05-30T00:45:20.510Z,10.80
2019-05-30T00:47:40.100Z,10.80
2019-05-30T00:50:09.411Z,10.80
2019-05-30T00:52:38.588Z,10.80
2019-05-30T00:55:08.617Z,10.70
2019-05-30T00:57:37.700Z,10.60
2019-05-30T01:00:07.193Z,10.50
2019-05-30T01:02:36.514Z,10.50
2019-05-30T01:05:05.102Z,10.50
2019-05-30T01:07:34.504Z,10.60
2019-05-30T01:10:05.010Z,10.70
2019-05-30T01:12:34.330Z,10.70
2019-05-30T01:15:03.443Z,10.60
2019-05-30T01:17:32.717Z,10.50
2019-05-30T01:20:03.113Z,10.40
2019-05-30T01:22:32.753Z,10.30
2019-05-30T11:18:05.414Z,18.20
2019-05-30T11:20:34.652Z,18.20
2019-05-30T11:45:24.990Z,18.40
2019-05-30T11:47:54.220Z,18.60
2019-05-30T11:50:23.612Z,18.70
2019-05-30T11:52:53.779Z,18.70
2019-05-30T11:55:24.655Z,18.70
2019-05-30T11:57:54.671Z,18.90
2019-05-30T12:00:24.285Z,19.00
2019-05-30T12:02:54.316Z,19.40
2019-05-30T12:05:24.148Z,19.70
2019-05-30T12:07:54.721Z,19.80
2019-05-30T12:10:25.019Z,19.80
2019-05-30T12:12:55.274Z,20.00
2019-05-30T12:15:24.705Z,20.00
2019-05-30T12:17:55.224Z,19.70
2019-05-30T12:20:24.935Z,19.90
2019-05-30T12:22:54.341Z,20.00
2019-05-30T12:25:23.451Z,19.90
2019-05-30T12:27:52.529Z,20.00
2019-05-30T12:32:51.978Z,20.50
2019-05-30T12:35:21.974Z,20.30
2019-05-30T12:37:56.248Z,20.40
2019-05-30T12:40:22.101Z,20.70
2019-05-30T12:42:55.396Z,21.00
2019-05-30T12:45:25.402Z,21.30
2019-05-30T12:47:55.124Z,21.70
2019-05-30T12:50:24.540Z,21.20
2019-05-30T12:52:53.714Z,21.10
2019-05-30T12:55:23.009Z,21.30
2019-05-30T12:57:52.109Z,21.50
2019-05-30T13:00:24.484Z,21.50
2019-05-30T13:02:54.620Z,21.70
2019-05-30T13:05:24.221Z,22.00
2019-05-30T13:08:10.208Z,22.00
2019-05-30T13:10:25.215Z,21.70
2019-05-30T13:12:55.562Z,21.60
2019-05-30T13:15:24.814Z,21.80
2019-05-30T13:17:55.609Z,22.10
2019-05-30T13:20:25.009Z,22.50
2019-05-30T13:22:54.131Z,22.90
2019-05-30T13:25:25.453Z,23.20
2019-05-30T13:27:55.659Z,23.40
2019-05-30T13:30:25.329Z,23.60
2019-05-30T13:32:54.487Z,23.70
2019-05-30T13:35:23.587Z,23.70
2019-05-30T13:37:52.689Z,23.70
2019-05-30T13:40:25.467Z,23.80
2019-05-30T13:42:52.928Z,23.80
2019-05-30T13:45:25.093Z,23.90
2019-05-30T13:47:54.410Z,24.00
2019-05-30T13:50:23.701Z,24.10
2019-05-30T13:52:52.887Z,24.30
2019-05-30T13:55:21.979Z,24.40
2019-05-30T13:57:51.189Z,24.60
2019-05-30T14:00:20.888Z,24.70
2019-05-30T14:02:50.015Z,24.90
2019-05-30T14:05:23.279Z,24.90
2019-05-30T14:07:49.831Z,25.00
2019-05-30T14:10:19.323Z,25.00
2019-05-30T14:12:48.636Z,25.10
2019-05-30T14:15:18.976Z,25.10
2019-05-30T14:17:48.190Z,25.10
2019-05-30T14:20:18.215Z,25.20
2019-05-30T14:22:47.669Z,25.30
2019-05-30T14:25:17.307Z,25.30
2019-05-30T14:27:46.471Z,25.20
2019-05-30T14:30:15.784Z,25.20
2019-05-30T14:32:44.908Z,25.20
2019-05-30T14:35:14.379Z,25.20
2019-05-30T14:37:43.591Z,25.30
2019-05-30T14:40:14.770Z,25.20
2019-05-30T14:42:43.942Z,25.20
2019-05-30T14:45:16.659Z,25.20
2019-05-30T14:47:46.201Z,25.20
2019-05-30T14:50:17.577Z,25.20
2019-05-30T14:52:47.458Z,25.10
2019-05-30T14:55:17.342Z,25.10
2019-05-30T14:57:47.187Z,25.00
2019-05-30T15:00:18.199Z,25.00
2019-05-30T15:02:47.437Z,25.00
2019-05-30T15:05:17.031Z,25.00
2019-05-30T15:07:46.232Z,25.00
2019-05-30T15:10:17.087Z,24.80
2019-05-30T15:12:46.366Z,24.70
2019-05-30T15:15:18.515Z,24.60
2019-05-30T15:17:47.499Z,24.50
2019-05-30T15:20:17.734Z,24.50
2019-05-30T15:22:47.088Z,24.50
2019-05-30T15:25:18.040Z,24.60
2019-05-30T15:27:47.669Z,24.60
2019-05-30T15:30:18.033Z,24.60
2019-05-30T15:32:47.127Z,24.60
2019-05-30T15:35:19.161Z,24.50
2019-05-30T15:37:47.972Z,24.40
2019-05-30T15:40:17.611Z,24.30
2019-05-30T15:42:46.882Z,24.30
2019-05-30T15:45:18.243Z,24.20
2019-05-30T15:47:47.833Z,24.10
2019-05-30T15:50:18.659Z,24.20
2019-05-30T15:52:48.182Z,24.10
2019-05-30T15:55:17.599Z,24.00
2019-05-30T15:57:47.099Z,23.90
2019-05-30T16:00:18.031Z,23.90
2019-05-30T16:02:47.178Z,23.90
2019-05-30T16:05:16.826Z,23.90
2019-05-30T16:07:46.026Z,23.90
2019-05-30T16:10:16.988Z,23.80
2019-05-30T16:12:46.372Z,23.90
2019-05-30T16:15:17.485Z,23.90
2019-05-30T16:17:46.707Z,23.90
2019-05-30T16:20:16.112Z,23.70
2019-05-30T16:22:45.242Z,23.50
2019-05-30T16:25:15.515Z,23.50
2019-05-30T16:27:44.831Z,23.60
2019-05-30T16:30:19.750Z,23.60
2019-05-30T16:32:45.068Z,23.70
2019-05-30T16:35:14.076Z,23.60
2019-05-30T16:37:43.263Z,23.50
2019-05-30T16:40:12.691Z,23.60
2019-05-30T16:42:43.391Z,23.70
2019-05-30T16:45:20.898Z,23.80
2019-05-30T16:47:48.605Z,23.70
2019-05-30T16:50:16.532Z,23.60
2019-05-30T16:52:45.389Z,23.60
2019-05-30T16:55:15.173Z,23.70
2019-05-30T16:57:44.281Z,23.60
2019-05-30T17:00:15.714Z,23.50
2019-05-30T17:02:44.852Z,23.20
2019-05-30T17:05:14.068Z,22.50
2019-05-30T17:07:43.254Z,21.90
2019-05-30T17:10:22.261Z,21.30
2019-05-30T17:12:43.397Z,20.80
2019-05-30T17:15:13.428Z,20.40
2019-05-30T17:17:42.419Z,20.00
2019-05-30T17:20:12.189Z,19.80
2019-05-30T17:22:41.234Z,19.60
2019-05-30T17:25:11.040Z,19.40
2019-05-30T17:27:40.017Z,19.30
2019-05-30T17:30:12.336Z,19.10
2019-05-30T17:32:41.335Z,19.00
2019-05-30T17:35:10.901Z,18.90
2019-05-30T17:37:39.863Z,18.90
2019-05-30T17:40:11.091Z,18.80
2019-05-30T17:42:40.037Z,18.80
2019-05-30T17:45:10.085Z,18.70
2019-05-30T17:47:39.147Z,18.60
2019-05-30T17:50:10.029Z,18.60
2019-05-30T17:52:38.978Z,18.50
2019-05-30T17:55:08.830Z,18.40
2019-05-30T17:57:37.977Z,18.30
2019-05-30T18:00:15.610Z,18.20
2019-05-30T18:02:44.551Z,18.10
2019-05-30T18:05:14.261Z,18.10
2019-05-30T18:07:43.460Z,18.00
2019-05-30T18:10:14.302Z,18.00
2019-05-30T18:12:43.419Z,18.00
2019-05-30T18:15:15.457Z,18.00
2019-05-30T18:17:44.600Z,18.00
2019-05-30T18:20:14.902Z,18.00
2019-05-30T18:22:43.969Z,17.90
2019-05-30T18:25:13.472Z,17.90
2019-05-30T18:27:42.678Z,17.80
2019-05-30T18:30:12.859Z,17.70
2019-05-30T18:32:42.101Z,17.70
2019-05-30T18:35:11.669Z,17.60
2019-05-30T18:37:40.938Z,17.50
2019-05-30T18:40:10.418Z,17.50
2019-05-30T18:42:39.503Z,17.40
2019-05-30T18:45:10.751Z,17.40
2019-05-30T18:47:39.946Z,17.20
2019-05-30T18:50:09.894Z,17.20
2019-05-30T18:52:39.264Z,17.20
2019-05-30T18:55:09.603Z,17.00
2019-05-30T18:57:38.795Z,16.90
2019-05-30T19:00:11.834Z,16.90
2019-05-30T19:02:40.722Z,16.80
2019-05-30T19:05:10.508Z,16.80
2019-05-30T19:07:39.778Z,16.70
2019-05-30T19:10:09.245Z,16.70
2019-05-30T19:12:38.528Z,16.60
2019-05-30T19:15:08.713Z,16.60
2019-05-30T19:17:37.797Z,16.40
2019-05-30T19:20:07.642Z,16.40
2019-05-30T19:22:36.785Z,16.30
2019-05-30T19:25:09.305Z,16.30
2019-05-30T19:27:38.733Z,16.20
2019-05-30T19:30:09.283Z,16.20
2019-05-30T19:32:38.306Z,16.20
2019-05-30T19:35:08.639Z,16.10
2019-05-30T19:37:37.858Z,16.20
2019-05-30T19:40:09.047Z,16.10
2019-05-30T19:42:38.170Z,16.10
2019-05-30T19:45:11.162Z,16.00
2019-05-30T19:47:40.411Z,16.00
2019-05-30T19:50:10.361Z,16.00
2019-05-30T19:52:39.671Z,15.90
2019-05-30T19:55:09.548Z,15.90
2019-05-30T19:57:39.932Z,15.80
2019-05-30T20:00:11.355Z,15.70
2019-05-30T20:02:40.637Z,15.70
2019-05-30T20:05:10.780Z,15.70
2019-05-30T20:07:40.903Z,15.80
2019-05-30T20:10:10.710Z,15.80
2019-05-30T20:12:40.998Z,15.80
2019-05-30T20:15:12.195Z,15.80
2019-05-30T20:17:42.051Z,15.90
2019-05-30T20:20:12.427Z,15.90
2019-05-30T20:22:42.425Z,16.00
2019-05-30T20:25:12.291Z,15.90
2019-05-30T20:27:41.448Z,15.90
2019-05-30T20:30:12.562Z,15.90
2019-05-30T20:32:43.144Z,15.90
2019-05-30T20:35:12.927Z,15.90
2019-05-30T20:37:42.937Z,15.90
2019-05-30T20:40:13.772Z,15.80
2019-05-30T20:42:43.162Z,15.70
2019-05-30T20:45:12.969Z,15.70
2019-05-30T20:47:43.110Z,15.70
2019-05-30T20:50:15.075Z,15.70
2019-05-30T20:52:45.638Z,15.70
2019-05-30T20:55:16.658Z,15.60
2019-05-30T20:57:46.876Z,15.60
2019-05-30T21:00:18.535Z,15.50
2019-05-30T21:02:47.910Z,15.50
2019-05-30T21:05:17.238Z,15.40
2019-05-30T21:07:48.170Z,15.30
2019-05-30T21:10:17.721Z,15.30
2019-05-30T21:12:49.339Z,15.30
2019-05-30T21:15:18.901Z,15.30
2019-05-30T21:17:48.214Z,15.20
2019-05-30T21:20:17.665Z,15.20
2019-05-30T21:22:46.867Z,15.10
2019-05-30T21:25:16.780Z,15.00
2019-05-30T21:27:47.184Z,15.00
2019-05-30T21:30:16.892Z,14.90
2019-05-30T21:32:47.739Z,14.90
2019-05-30T21:35:16.913Z,14.90
2019-05-30T21:37:46.438Z,14.90
2019-05-30T21:40:15.858Z,14.80
2019-05-30T21:43:03.092Z,14.80
2019-05-30T21:45:16.223Z,14.70
2019-05-30T21:47:46.740Z,14.60
2019-05-30T21:50:17.748Z,14.60
2019-05-30T21:52:47.892Z,14.60
2019-05-30T21:55:17.479Z,14.60
2019-05-30T21:57:46.567Z,14.60
2019-05-30T22:00:21.290Z,14.50
2019-05-30T22:02:55.204Z,14.60
2019-05-30T22:05:25.114Z,14.60
2019-05-30T22:07:54.309Z,14.50
2019-05-30T22:10:23.425Z,14.50
2019-05-30T22:12:52.503Z,14.60
2019-05-30T22:15:21.726Z,14.50
2019-05-30T22:17:51.931Z,14.50
2019-05-30T22:20:21.343Z,14.50
2019-05-30T22:22:50.537Z,14.40
2019-05-30T22:25:19.770Z,14.40
2019-05-30T22:27:48.943Z,14.40
2019-05-30T22:30:18.655Z,14.40
2019-05-30T22:32:48.689Z,14.30
2019-05-30T22:35:18.053Z,14.30
2019-05-30T22:37:47.178Z,14.30
2019-05-30T22:40:17.367Z,14.30
2019-05-30T22:42:46.659Z,14.30
2019-05-30T22:45:16.014Z,14.20
2019-05-30T22:47:46.270Z,14.20
2019-05-30T22:50:15.901Z,14.20
2019-05-30T22:52:44.990Z,14.20
2019-05-30T22:55:14.312Z,14.20
2019-05-30T22:57:44.379Z,14.10
2019-05-30T23:00:13.691Z,14.10
2019-05-30T23:02:42.908Z,14.10
2019-05-30T23:05:11.897Z,14.00
2019-05-30T23:07:40.914Z,14.00
2019-05-30T23:10:10.149Z,13.90
2019-05-30T23:12:39.303Z,13.90
2019-05-30T23:15:08.509Z,13.80
2019-05-30T23:17:40.780Z,13.80
2019-05-30T23:20:10.062Z,13.70
2019-05-30T23:22:39.259Z,13.70
2019-05-30T23:25:08.866Z,13.60
2019-05-30T23:27:38.101Z,13.70
2019-05-30T23:30:08.338Z,13.60
2019-05-30T23:32:37.480Z,13.60
2019-05-30T23:35:08.457Z,13.60
2019-05-30T23:37:40.483Z,13.50
2019-05-30T23:40:09.852Z,13.50
2019-05-30T23:42:38.922Z,13.40
2019-05-30T23:45:08.457Z,13.40
2019-05-30T23:47:37.684Z,13.40
2019-05-30T23:50:10.025Z,13.40
2019-05-30T23:52:39.174Z,13.30
2019-05-30T23:55:08.753Z,13.10
2019-05-30T23:57:39.691Z,13.10
